Time;durP1;ratioP1;P1;durP2;ratioP2;P2;SDS_P1;SDS_P2;PMS_P1;PMS_P2;Temp;Humidity;BMP_temperature;BMP_pressure;BME280_temperature;BME280_humidity;BME280_pressure;Samples;Min_cycle;Max_cycle;Signal;HPM_P1;HPM_P2
2023/09/02 00:01:30;;;;;;;33.37;21.80;;;;;;;;;;5029483;28;20085;-60
2023/09/02 00:03:56;;;;;;;34.10;22.97;;;;;;;;;;5030906;28;20135;-60
2023/09/02 00:06:22;;;;;;;33.13;22.37;;;;;;;;;;5031226;28;20041;-61
2023/09/02 00:08:48;;;;;;;28.67;20.97;;;;;;;;;;5030411;28;20041;-60
2023/09/02 00:11:14;;;;;;;28.30;19.17;;;;;;;;;;5031063;28;20076;-60
2023/09/02 00:13:40;;;;;;;25.93;19.13;;;;;;;;;;5030031;28;20073;-60
2023/09/02 00:16:08;;;;;;;29.10;18.60;;;;;;;;;;5030508;28;20050;-60
2023/09/02 00:18:33;;;;;;;29.93;19.00;;;;;;;;;;5030495;28;20107;-60
2023/09/02 00:20:59;;;;;;;30.17;19.70;;;;;;;;;;5029298;28;20033;-64
2023/09/02 00:23:25;;;;;;;30.47;19.03;;;;;;;;;;5030342;28;20033;-60
2023/09/02 00:25:51;;;;;;;31.73;20.67;;;;;;;;;;5028830;28;20049;-60
2023/09/02 00:28:17;;;;;;;34.67;22.43;;;;;;;;;;5030901;28;20419;-60
2023/09/02 00:30:43;;;;;;;35.23;21.80;;;;;;;;;;5030512;28;20061;-60
2023/09/02 00:33:10;;;;;;;38.83;24.33;;;;;;;;;;5030678;28;20559;-61
2023/09/02 00:35:36;;;;;;;33.20;23.27;;;;;;;;;;5030185;28;20550;-60
2023/09/02 00:38:02;;;;;;;40.30;23.20;;;;;;;;;;5030355;28;20041;-60
2023/09/02 00:40:28;;;;;;;37.00;24.93;;;;;;;;;;5030092;28;20062;-60
2023/09/02 00:42:55;;;;;;;32.27;22.43;;;;;;;;;;5030319;28;20057;-60
2023/09/02 00:45:22;;;;;;;37.23;24.93;;;;;;;;;;5029193;28;20047;-61
2023/09/02 00:47:53;;;;;;;36.43;24.43;;;;;;;;;;5029988;28;20050;-61
2023/09/02 00:50:19;;;;;;;41.83;28.67;;;;;;;;;;5029863;28;20049;-60
2023/09/02 00:52:46;;;;;;;44.83;28.87;;;;;;;;;;5030161;28;20060;-60
2023/09/02 00:55:12;;;;;;;42.53;25.93;;;;;;;;;;5029347;28;20100;-60
2023/09/02 00:57:39;;;;;;;37.50;24.70;;;;;;;;;;5029563;28;20077;-61
2023/09/02 01:00:05;;;;;;;40.03;24.60;;;;;;;;;;5029822;28;20423;-61
2023/09/02 01:02:32;;;;;;;39.73;26.27;;;;;;;;;;5029131;28;20053;-61
2023/09/02 01:04:59;;;;;;;33.70;23.63;;;;;;;;;;5029803;28;20049;-61
2023/09/02 01:07:26;;;;;;;36.43;23.60;;;;;;;;;;5029146;28;20103;-61
2023/09/02 01:09:51;;;;;;;39.93;26.27;;;;;;;;;;5029736;28;20116;-61
2023/09/02 01:12:18;;;;;;;41.17;24.00;;;;;;;;;;5029295;28;20049;-61
2023/09/02 01:14:44;;;;;;;34.37;24.20;;;;;;;;;;5028479;28;20448;-61
2023/09/02 01:17:10;;;;;;;32.90;24.77;;;;;;;;;;5029045;28;20046;-61
2023/09/02 01:19:37;;;;;;;39.60;27.40;;;;;;;;;;5029584;28;20242;-61
2023/09/02 01:22:12;;;;;;;45.50;28.00;;;;;;;;;;5028993;28;20041;-60
2023/09/02 01:24:44;;;;;;;39.47;25.57;;;;;;;;;;5029248;28;20107;-61
2023/09/02 01:27:17;;;;;;;38.53;26.00;;;;;;;;;;5028542;28;20038;-61
2023/09/02 01:30:03;;;;;;;36.03;26.20;;;;;;;;;;5028796;28;20499;-61
2023/09/02 01:32:33;;;;;;;33.93;24.37;;;;;;;;;;5029420;28;20495;-61
2023/09/02 01:35:02;;;;;;;40.27;27.80;;;;;;;;;;5029413;28;20046;-61
2023/09/02 01:37:29;;;;;;;38.33;25.80;;;;;;;;;;5029340;28;20045;-61
2023/09/02 01:39:57;;;;;;;40.77;28.10;;;;;;;;;;5029219;28;20053;-61
2023/09/02 01:42:24;;;;;;;50.23;32.37;;;;;;;;;;5028045;28;20528;-61
2023/09/02 01:44:50;;;;;;;65.50;37.13;;;;;;;;;;5029347;28;20085;-61
2023/09/02 01:47:17;;;;;;;41.70;29.33;;;;;;;;;;5029214;28;20057;-61
2023/09/02 01:49:46;;;;;;;44.23;30.63;;;;;;;;;;5028948;28;20065;-61
2023/09/02 01:52:13;;;;;;;48.07;30.83;;;;;;;;;;5028961;28;20045;-61
2023/09/02 01:54:39;;;;;;;48.30;32.00;;;;;;;;;;5029096;28;20128;-61
2023/09/02 01:57:06;;;;;;;47.93;31.27;;;;;;;;;;5028124;28;20080;-61
2023/09/02 01:59:33;;;;;;;45.40;29.73;;;;;;;;;;5028910;28;20042;-61
2023/09/02 02:02:02;;;;;;;43.07;30.53;;;;;;;;;;5028635;28;20038;-61
2023/09/02 02:04:34;;;;;;;48.90;33.30;;;;;;;;;;5028655;28;20056;-61
2023/09/02 02:07:02;;;;;;;48.17;31.37;;;;;;;;;;5029077;28;20511;-61
2023/09/02 02:09:33;;;;;;;46.43;29.93;;;;;;;;;;5028338;28;20303;-61
2023/09/02 02:12:01;;;;;;;42.73;28.27;;;;;;;;;;5027064;28;20781;-60
2023/09/02 02:14:30;;;;;;;46.27;29.17;;;;;;;;;;5027185;28;20111;-61
2023/09/02 02:16:56;;;;;;;46.80;29.97;;;;;;;;;;5028522;28;20056;-61
2023/09/02 02:19:23;;;;;;;49.80;31.30;;;;;;;;;;5029063;28;20458;-61
2023/09/02 02:21:49;;;;;;;64.27;35.90;;;;;;;;;;5028061;28;20048;-61
2023/09/02 02:24:15;;;;;;;56.73;34.43;;;;;;;;;;5028787;28;20412;-61
2023/09/02 02:26:41;;;;;;;70.27;39.37;;;;;;;;;;5028889;28;20504;-61
2023/09/02 02:29:07;;;;;;;65.07;36.33;;;;;;;;;;5027741;28;20071;-61
2023/09/02 02:31:34;;;;;;;51.93;32.40;;;;;;;;;;5027975;28;20484;-61
2023/09/02 02:34:00;;;;;;;55.70;33.40;;;;;;;;;;5028101;28;20108;-61
2023/09/02 02:36:28;;;;;;;55.30;32.87;;;;;;;;;;5028672;28;20046;-61
2023/09/02 02:38:54;;;;;;;47.83;31.63;;;;;;;;;;5028551;28;20048;-61
2023/09/02 02:41:21;;;;;;;49.47;33.07;;;;;;;;;;5028571;28;20056;-61
2023/09/02 02:43:46;;;;;;;48.40;32.13;;;;;;;;;;5028355;28;20056;-61
2023/09/02 02:46:13;;;;;;;49.27;32.53;;;;;;;;;;5027663;28;20038;-61
2023/09/02 02:48:38;;;;;;;49.20;33.03;;;;;;;;;;5028017;28;20049;-61
2023/09/02 02:51:05;;;;;;;54.77;32.67;;;;;;;;;;5027041;28;20057;-61
2023/09/02 02:53:31;;;;;;;54.27;34.83;;;;;;;;;;5028276;28;20535;-60
2023/09/02 02:55:57;;;;;;;49.37;33.27;;;;;;;;;;5028406;28;20420;-61
2023/09/02 02:58:23;;;;;;;52.73;33.20;;;;;;;;;;5028250;28;20056;-61
2023/09/02 03:00:49;;;;;;;58.20;35.73;;;;;;;;;;5027670;28;20060;-61
2023/09/02 03:03:16;;;;;;;50.87;31.53;;;;;;;;;;5028756;28;20053;-61
2023/09/02 03:05:42;;;;;;;59.93;34.73;;;;;;;;;;5027909;28;20045;-61
2023/09/02 03:08:09;;;;;;;58.23;34.93;;;;;;;;;;5027289;28;20144;-60
2023/09/02 03:10:35;;;;;;;63.60;37.17;;;;;;;;;;5028087;28;20128;-60
2023/09/02 03:13:02;;;;;;;57.63;34.67;;;;;;;;;;5028128;28;20096;-60
2023/09/02 03:15:28;;;;;;;68.73;37.30;;;;;;;;;;5027593;28;20059;-60
2023/09/02 03:17:54;;;;;;;66.47;36.13;;;;;;;;;;5027902;28;20051;-59
2023/09/02 03:20:20;;;;;;;75.70;39.97;;;;;;;;;;5027741;28;20522;-60
2023/09/02 03:22:46;;;;;;;70.20;38.00;;;;;;;;;;5029192;28;20053;-60
2023/09/02 03:25:12;;;;;;;70.00;37.90;;;;;;;;;;5030137;28;20053;-61
2023/09/02 03:27:39;;;;;;;69.07;36.23;;;;;;;;;;5031819;28;20050;-60
2023/09/02 03:30:06;;;;;;;57.03;34.00;;;;;;;;;;5030541;28;20045;-60
2023/09/02 03:32:32;;;;;;;94.90;46.00;;;;;;;;;;5031695;28;20041;-60
2023/09/02 03:34:58;;;;;;;90.30;43.47;;;;;;;;;;5031195;28;20052;-61
2023/09/02 03:37:24;;;;;;;58.67;35.27;;;;;;;;;;5031992;28;20422;-61
2023/09/02 03:39:51;;;;;;;64.40;35.60;;;;;;;;;;5031631;28;20071;-61
2023/09/02 03:42:17;;;;;;;77.53;39.53;;;;;;;;;;5030752;28;20064;-60
2023/09/02 03:44:43;;;;;;;76.50;40.70;;;;;;;;;;5031151;28;20052;-60
2023/09/02 03:47:09;;;;;;;91.20;43.17;;;;;;;;;;5031383;28;20057;-60
2023/09/02 03:49:35;;;;;;;84.33;42.43;;;;;;;;;;5031529;28;20492;-60
2023/09/02 03:52:01;;;;;;;83.90;40.47;;;;;;;;;;5031235;28;20095;-60
2023/09/02 03:54:27;;;;;;;77.93;39.00;;;;;;;;;;5030258;28;20041;-60
2023/09/02 03:56:53;;;;;;;85.53;38.87;;;;;;;;;;5031295;28;20078;-60
2023/09/02 03:59:19;;;;;;;81.57;39.50;;;;;;;;;;5031160;28;20458;-60
2023/09/02 04:01:46;;;;;;;84.93;41.73;;;;;;;;;;5030837;28;20129;-60
2023/09/02 04:04:12;;;;;;;86.50;40.17;;;;;;;;;;5030574;28;20103;-60
2023/09/02 04:06:38;;;;;;;87.47;41.23;;;;;;;;;;5030498;28;20053;-60
2023/09/02 04:09:07;;;;;;;110.60;48.80;;;;;;;;;;5031260;28;20053;-61
2023/09/02 04:11:33;;;;;;;122.23;51.03;;;;;;;;;;5030902;28;20577;-61
2023/09/02 04:14:00;;;;;;;127.90;48.20;;;;;;;;;;5030982;28;20099;-60
2023/09/02 04:16:26;;;;;;;104.33;47.30;;;;;;;;;;5031272;28;20463;-60
2023/09/02 04:18:53;;;;;;;111.23;46.30;;;;;;;;;;5030173;28;20050;-61
2023/09/02 04:21:19;;;;;;;103.47;43.30;;;;;;;;;;5031130;28;20128;-60
2023/09/02 04:23:46;;;;;;;108.57;46.87;;;;;;;;;;5030916;28;20594;-60
2023/09/02 04:26:14;;;;;;;105.50;44.77;;;;;;;;;;5030392;28;20133;-61
2023/09/02 04:28:40;;;;;;;115.97;48.70;;;;;;;;;;5030577;28;20049;-60
2023/09/02 04:31:06;;;;;;;121.43;49.60;;;;;;;;;;5030837;28;20084;-61
2023/09/02 04:33:32;;;;;;;131.07;50.47;;;;;;;;;;5030194;28;20049;-61
2023/09/02 04:36:00;;;;;;;126.57;49.10;;;;;;;;;;5030616;28;20046;-61
2023/09/02 04:38:26;;;;;;;124.00;49.57;;;;;;;;;;5030212;28;20045;-61
2023/09/02 04:40:52;;;;;;;136.97;51.80;;;;;;;;;;5030174;28;20057;-61
2023/09/02 04:43:18;;;;;;;156.47;56.13;;;;;;;;;;5030289;28;20045;-61
2023/09/02 04:45:44;;;;;;;159.73;56.17;;;;;;;;;;5029160;28;20046;-62
2023/09/02 04:48:11;;;;;;;174.87;59.20;;;;;;;;;;5029786;28;20128;-62
2023/09/02 04:50:38;;;;;;;140.20;53.20;;;;;;;;;;5030561;28;20088;-62
2023/09/02 04:53:04;;;;;;;182.17;58.40;;;;;;;;;;5030162;28;20064;-62
2023/09/02 04:55:30;;;;;;;134.63;50.47;;;;;;;;;;5030029;28;20053;-62
2023/09/02 04:57:57;;;;;;;192.50;61.43;;;;;;;;;;5030424;28;20147;-61
2023/09/02 05:00:24;;;;;;;193.93;58.80;;;;;;;;;;5029966;28;20569;-61
2023/09/02 05:02:50;;;;;;;170.17;56.40;;;;;;;;;;5030113;28;20046;-61
2023/09/02 05:05:20;;;;;;;213.17;65.47;;;;;;;;;;5030061;28;20051;-62
2023/09/02 05:07:46;;;;;;;221.93;63.27;;;;;;;;;;5029620;28;20343;-61
2023/09/02 05:10:13;;;;;;;181.87;60.47;;;;;;;;;;5030137;28;20041;-62
2023/09/02 05:12:39;;;;;;;159.23;58.90;;;;;;;;;;5029267;28;20559;-62
2023/09/02 05:15:05;;;;;;;172.27;60.17;;;;;;;;;;5029707;28;20053;-61
2023/09/02 05:17:32;;;;;;;256.20;72.20;;;;;;;;;;5030161;28;20050;-62
2023/09/02 05:19:58;;;;;;;155.07;57.43;;;;;;;;;;5029723;28;20076;-62
2023/09/02 05:22:24;;;;;;;148.27;57.20;;;;;;;;;;5029719;28;20053;-62
2023/09/02 05:24:51;;;;;;;184.97;64.27;;;;;;;;;;5028573;28;20041;-63
2023/09/02 05:27:17;;;;;;;227.50;67.70;;;;;;;;;;5028964;28;20509;-63
2023/09/02 05:29:43;;;;;;;286.77;77.27;;;;;;;;;;5029645;28;20047;-63
2023/09/02 05:32:09;;;;;;;261.37;71.37;;;;;;;;;;5029483;28;20053;-62
2023/09/02 05:34:35;;;;;;;276.67;74.67;;;;;;;;;;5029482;28;20491;-62
2023/09/02 05:37:02;;;;;;;266.27;73.43;;;;;;;;;;5028289;28;20064;-62
2023/09/02 05:39:28;;;;;;;269.67;77.27;;;;;;;;;;5028935;28;20804;-62
2023/09/02 05:41:54;;;;;;;237.13;71.60;;;;;;;;;;5029311;28;20046;-62
2023/09/02 05:44:20;;;;;;;337.63;84.27;;;;;;;;;;5029241;28;20076;-62
2023/09/02 05:46:46;;;;;;;303.83;77.10;;;;;;;;;;5027077;28;20511;-62
2023/09/02 05:49:13;;;;;;;424.90;97.83;;;;;;;;;;5029381;28;20053;-62
2023/09/02 05:51:39;;;;;;;282.33;76.00;;;;;;;;;;5028529;28;20473;-62
2023/09/02 05:54:06;;;;;;;300.77;80.33;;;;;;;;;;5028779;28;20041;-61
2023/09/02 05:56:33;;;;;;;334.70;85.50;;;;;;;;;;5028416;28;20049;-61
2023/09/02 05:59:00;;;;;;;393.70;91.90;;;;;;;;;;5028814;28;20049;-62
2023/09/02 06:01:26;;;;;;;148.33;59.80;;;;;;;;;;5028969;28;20511;-62
2023/09/02 06:03:52;;;;;;;164.17;61.30;;;;;;;;;;5027921;28;20041;-61
2023/09/02 06:06:18;;;;;;;152.27;60.67;;;;;;;;;;5028902;28;20065;-62
2023/09/02 06:08:44;;;;;;;179.33;63.23;;;;;;;;;;5028455;28;20053;-61
2023/09/02 06:11:10;;;;;;;178.33;64.80;;;;;;;;;;5028413;28;20041;-62
2023/09/02 06:13:35;;;;;;;249.87;75.50;;;;;;;;;;5028555;28;20044;-62
2023/09/02 06:16:02;;;;;;;272.63;76.93;;;;;;;;;;5028855;28;20037;-62
2023/09/02 06:18:29;;;;;;;274.67;76.30;;;;;;;;;;5027750;28;20052;-61
2023/09/02 06:20:55;;;;;;;322.57;83.83;;;;;;;;;;5028231;28;20048;-62
2023/09/02 06:23:21;;;;;;;346.60;83.27;;;;;;;;;;5028812;28;20052;-62
2023/09/02 06:25:59;;;;;;;284.70;76.37;;;;;;;;;;5028400;28;20183;-62
2023/09/02 06:28:26;;;;;;;147.70;56.60;;;;;;;;;;5028177;28;20068;-62
2023/09/02 06:30:52;;;;;;;203.70;66.67;;;;;;;;;;5026309;28;20060;-62
2023/09/02 06:33:21;;;;;;;178.93;62.03;;;;;;;;;;5043414;28;20049;-62
2023/09/02 06:35:47;;;;;;;193.33;64.00;;;;;;;;;;5046629;28;20080;-62
2023/09/02 06:38:13;;;;;;;121.30;50.60;;;;;;;;;;5042315;28;20037;-62
2023/09/02 06:40:39;;;;;;;118.83;51.30;;;;;;;;;;5027872;28;20103;-61
2023/09/02 06:43:05;;;;;;;191.03;63.00;;;;;;;;;;5027476;28;20049;-62
2023/09/02 06:45:31;;;;;;;188.57;61.50;;;;;;;;;;5027238;28;20049;-61
2023/09/02 06:47:57;;;;;;;234.10;71.37;;;;;;;;;;5028239;28;20095;-61
2023/09/02 06:50:23;;;;;;;229.50;70.03;;;;;;;;;;5027144;28;20041;-62
2023/09/02 06:52:51;;;;;;;308.20;77.53;;;;;;;;;;5026109;28;20041;-62
2023/09/02 06:55:17;;;;;;;311.43;77.83;;;;;;;;;;5026859;28;20041;-62
2023/09/02 06:57:43;;;;;;;196.37;63.77;;;;;;;;;;5026851;28;20042;-62
2023/09/02 07:00:10;;;;;;;188.10;64.67;;;;;;;;;;5027471;28;20549;-62
2023/09/02 07:02:36;;;;;;;154.10;57.13;;;;;;;;;;5028299;28;20484;-61
2023/09/02 07:05:02;;;;;;;292.43;77.23;;;;;;;;;;5026774;28;20064;-62
2023/09/02 07:07:28;;;;;;;242.73;70.80;;;;;;;;;;5047557;28;20049;-61
2023/09/02 07:09:54;;;;;;;125.70;52.77;;;;;;;;;;5047454;28;20045;-62
2023/09/02 07:12:20;;;;;;;232.30;70.90;;;;;;;;;;5029974;28;20041;-62
2023/09/02 07:14:46;;;;;;;238.90;71.87;;;;;;;;;;5024988;28;20046;-62
2023/09/02 07:17:12;;;;;;;174.87;63.13;;;;;;;;;;5025981;28;20076;-62
2023/09/02 07:19:38;;;;;;;231.97;73.83;;;;;;;;;;5018009;28;20093;-62
2023/09/02 07:22:04;;;;;;;157.03;58.80;;;;;;;;;;5035192;28;20499;-62
2023/09/02 07:24:30;;;;;;;129.67;53.40;;;;;;;;;;5033823;28;20049;-62
2023/09/02 07:26:56;;;;;;;218.00;68.63;;;;;;;;;;5032083;28;20140;-62
2023/09/02 07:29:22;;;;;;;176.70;61.30;;;;;;;;;;5026367;28;20080;-62
2023/09/02 07:31:48;;;;;;;163.33;59.03;;;;;;;;;;5027233;28;20079;-62
2023/09/02 07:34:14;;;;;;;100.17;48.13;;;;;;;;;;5027381;28;20042;-62
2023/09/02 07:36:42;;;;;;;148.73;58.73;;;;;;;;;;5036575;28;20041;-62
2023/09/02 07:39:08;;;;;;;157.27;59.93;;;;;;;;;;5046618;28;20499;-62
2023/09/02 07:41:34;;;;;;;122.90;53.70;;;;;;;;;;5033994;28;20107;-62
2023/09/02 07:44:00;;;;;;;238.90;73.33;;;;;;;;;;5028435;28;20110;-60
2023/09/02 07:46:26;;;;;;;130.13;53.97;;;;;;;;;;5026151;28;20068;-60
2023/09/02 07:48:52;;;;;;;151.67;58.07;;;;;;;;;;5026603;28;20038;-61
2023/09/02 07:51:18;;;;;;;108.77;48.30;;;;;;;;;;5027385;28;20038;-61
2023/09/02 07:53:44;;;;;;;380.53;92.80;;;;;;;;;;5027252;28;20053;-61
2023/09/02 07:56:10;;;;;;;228.23;73.73;;;;;;;;;;5027187;28;20484;-62
2023/09/02 07:58:36;;;;;;;125.93;53.17;;;;;;;;;;5027043;28;20033;-61
2023/09/02 08:01:02;;;;;;;169.20;62.93;;;;;;;;;;5027160;28;20052;-61
2023/09/02 08:03:28;;;;;;;228.90;70.63;;;;;;;;;;5026192;28;20401;-61
2023/09/02 08:05:55;;;;;;;210.93;66.83;;;;;;;;;;5026522;28;20045;-61
2023/09/02 08:08:21;;;;;;;197.67;67.00;;;;;;;;;;5027586;28;20431;-61
2023/09/02 08:10:47;;;;;;;234.90;71.47;;;;;;;;;;5030257;28;20567;-61
2023/09/02 08:13:13;;;;;;;179.80;64.10;;;;;;;;;;5030472;28;20084;-61
2023/09/02 08:15:39;;;;;;;130.97;54.13;;;;;;;;;;5031074;28;20045;-61
2023/09/02 08:18:05;;;;;;;256.63;74.13;;;;;;;;;;5030284;28;20049;-61
2023/09/02 08:20:31;;;;;;;189.73;63.27;;;;;;;;;;5030920;28;20041;-61
2023/09/02 08:22:58;;;;;;;171.70;58.90;;;;;;;;;;5030407;28;20136;-61
2023/09/02 08:25:24;;;;;;;236.63;68.40;;;;;;;;;;5030772;28;20053;-61
2023/09/02 08:27:50;;;;;;;79.20;39.57;;;;;;;;;;5030375;28;20053;-61
2023/09/02 08:30:16;;;;;;;77.20;40.87;;;;;;;;;;5030207;28;20570;-61
2023/09/02 08:32:43;;;;;;;120.60;49.23;;;;;;;;;;5030112;28;20119;-61
2023/09/02 08:35:09;;;;;;;154.73;54.00;;;;;;;;;;5030672;28;20085;-61
2023/09/02 08:37:37;;;;;;;178.80;59.40;;;;;;;;;;5029987;28;20107;-61
2023/09/02 08:40:03;;;;;;;180.33;59.27;;;;;;;;;;5030137;28;20487;-61
2023/09/02 08:42:30;;;;;;;181.13;59.20;;;;;;;;;;5030283;28;20046;-61
2023/09/02 08:44:56;;;;;;;126.17;50.00;;;;;;;;;;5029821;28;20053;-62
2023/09/02 08:47:25;;;;;;;57.37;35.17;;;;;;;;;;5029804;28;20052;-62
2023/09/02 08:49:52;;;;;;;71.80;35.57;;;;;;;;;;5029978;28;20449;-62
2023/09/02 08:52:18;;;;;;;64.83;34.53;;;;;;;;;;5029994;28;20132;-61
2023/09/02 08:54:45;;;;;;;64.07;34.50;;;;;;;;;;5030179;28;20452;-62
2023/09/02 08:57:15;;;;;;;72.37;36.47;;;;;;;;;;5029374;28;20099;-62
2023/09/02 08:59:41;;;;;;;66.80;35.73;;;;;;;;;;5030019;28;20056;-62
2023/09/02 09:02:08;;;;;;;80.17;39.33;;;;;;;;;;5029736;28;20045;-62
2023/09/02 09:04:34;;;;;;;44.40;28.20;;;;;;;;;;5029913;28;20128;-62
2023/09/02 09:07:03;;;;;;;42.03;26.03;;;;;;;;;;5029946;28;20052;-62
2023/09/02 09:09:29;;;;;;;53.90;29.67;;;;;;;;;;5029807;28;20396;-62
2023/09/02 09:11:57;;;;;;;50.77;28.53;;;;;;;;;;5029106;28;20079;-62
2023/09/02 09:14:23;;;;;;;44.77;29.93;;;;;;;;;;5030001;28;20096;-62
2023/09/02 09:16:51;;;;;;;137.70;44.77;;;;;;;;;;5029556;28;20048;-63
2023/09/02 09:19:17;;;;;;;58.33;35.17;;;;;;;;;;5029620;28;20044;-62
2023/09/02 09:21:44;;;;;;;69.23;37.80;;;;;;;;;;5028884;28;20111;-62
2023/09/02 09:24:12;;;;;;;45.50;27.93;;;;;;;;;;5028835;28;20503;-62
2023/09/02 09:26:38;;;;;;;55.07;31.80;;;;;;;;;;5029447;28;20042;-62
2023/09/02 09:29:10;;;;;;;63.07;32.30;;;;;;;;;;5029125;28;20431;-62
2023/09/02 09:31:36;;;;;;;47.17;28.43;;;;;;;;;;5029294;28;20045;-62
2023/09/02 09:34:03;;;;;;;32.77;24.20;;;;;;;;;;5029120;28;20045;-63
2023/09/02 09:36:31;;;;;;;41.67;28.30;;;;;;;;;;5028936;28;20504;-63
2023/09/02 09:39:01;;;;;;;41.77;26.43;;;;;;;;;;5029133;28;20133;-61
2023/09/02 09:41:27;;;;;;;41.73;26.50;;;;;;;;;;5029004;28;20053;-61
2023/09/02 09:44:06;;;;;;;33.37;22.70;;;;;;;;;;5027637;28;20523;-61
2023/09/02 09:46:36;;;;;;;33.83;24.33;;;;;;;;;;5029033;28;20072;-61
2023/09/02 09:49:02;;;;;;;32.20;24.53;;;;;;;;;;5028404;28;20128;-60
2023/09/02 09:51:29;;;;;;;31.37;23.37;;;;;;;;;;5028600;28;20389;-61
2023/09/02 09:53:55;;;;;;;34.73;24.67;;;;;;;;;;5029001;28;20045;-61
2023/09/02 09:56:21;;;;;;;39.70;25.50;;;;;;;;;;5028854;28;20045;-62
2023/09/02 09:58:47;;;;;;;38.70;25.73;;;;;;;;;;5028557;28;20049;-60
2023/09/02 10:01:21;;;;;;;35.07;25.30;;;;;;;;;;5028107;28;20045;-60
2023/09/02 10:03:47;;;;;;;29.83;22.43;;;;;;;;;;5028635;28;20414;-61
2023/09/02 10:06:13;;;;;;;31.80;23.93;;;;;;;;;;5028647;28;20037;-60
2023/09/02 10:08:49;;;;;;;26.10;19.87;;;;;;;;;;5028206;28;20396;-60
2023/09/02 10:11:21;;;;;;;24.17;20.43;;;;;;;;;;5028671;28;20132;-60
2023/09/02 10:13:47;;;;;;;29.73;22.43;;;;;;;;;;5028084;28;20080;-62
2023/09/02 10:16:14;;;;;;;24.97;18.37;;;;;;;;;;5028583;28;20045;-62
2023/09/02 10:18:40;;;;;;;28.13;21.73;;;;;;;;;;5028056;28;20037;-60
2023/09/02 10:21:06;;;;;;;22.10;18.93;;;;;;;;;;5028088;28;20486;-60
2023/09/02 10:23:32;;;;;;;20.60;16.27;;;;;;;;;;5028392;28;20049;-60
2023/09/02 10:26:06;;;;;;;19.30;14.73;;;;;;;;;;5027848;28;20152;-59
2023/09/02 10:28:38;;;;;;;19.47;15.27;;;;;;;;;;5028162;28;20046;-59
2023/09/02 10:31:07;;;;;;;22.80;16.33;;;;;;;;;;5027770;28;20053;-60
2023/09/02 10:33:43;;;;;;;16.07;14.30;;;;;;;;;;5025708;28;20045;-59
2023/09/02 10:36:09;;;;;;;16.73;12.63;;;;;;;;;;5028017;28;20056;-61
2023/09/02 10:38:38;;;;;;;19.60;15.90;;;;;;;;;;5027888;28;20056;-60
2023/09/02 10:41:08;;;;;;;22.17;16.97;;;;;;;;;;5028030;28;20060;-59
2023/09/02 10:43:34;;;;;;;18.20;15.33;;;;;;;;;;5028241;28;20053;-60
2023/09/02 10:46:02;;;;;;;22.07;17.00;;;;;;;;;;5027185;28;20041;-60
2023/09/02 10:48:28;;;;;;;23.53;16.77;;;;;;;;;;5028001;28;20057;-60
2023/09/02 10:50:54;;;;;;;21.37;16.30;;;;;;;;;;5027734;28;20104;-60
2023/09/02 10:53:40;;;;;;;19.87;15.83;;;;;;;;;;5027489;28;20052;-61
2023/09/02 10:56:06;;;;;;;21.90;14.37;;;;;;;;;;5027695;28;20136;-61
2023/09/02 10:58:50;;;;;;;17.80;13.03;;;;;;;;;;5027795;28;20125;-60
2023/09/02 11:01:16;;;;;;;17.43;12.67;;;;;;;;;;5027947;28;20689;-61
2023/09/02 11:04:08;;;;;;;18.20;11.20;;;;;;;;;;5028000;28;20048;-61
2023/09/02 11:06:34;;;;;;;14.05;9.65;;;;;;;;;;5025744;28;20507;-60
2023/09/02 11:09:00;;;;;;;15.88;11.48;;;;;;;;;;5027268;28;20045;-57
2023/09/02 11:11:46;;;;;;;17.75;10.90;;;;;;;;;;5027579;28;20053;-57
2023/09/02 11:14:12;;;;;;;15.02;9.82;;;;;;;;;;5027460;28;20060;-58
2023/09/02 11:16:38;;;;;;;12.73;10.05;;;;;;;;;;5027748;28;20384;-59
2023/09/02 11:19:08;;;;;;;13.82;10.15;;;;;;;;;;5027980;28;20164;-60
2023/09/02 11:21:46;;;;;;;14.37;10.67;;;;;;;;;;5027463;28;20053;-60
2023/09/02 11:24:19;;;;;;;15.63;9.98;;;;;;;;;;5027629;28;20063;-60
2023/09/02 11:26:54;;;;;;;15.77;10.10;;;;;;;;;;5027686;28;20056;-59
2023/09/02 11:29:22;;;;;;;14.77;9.38;;;;;;;;;;5027443;28;20508;-60
2023/09/02 11:32:00;;;;;;;13.55;8.77;;;;;;;;;;5026360;28;20345;-60
2023/09/02 11:34:27;;;;;;;19.15;9.35;;;;;;;;;;5025920;28;20057;-60
2023/09/02 11:36:54;;;;;;;12.85;8.43;;;;;;;;;;5027502;28;20048;-60
2023/09/02 11:39:24;;;;;;;11.25;8.27;;;;;;;;;;5026991;28;20052;-61
2023/09/02 11:42:04;;;;;;;11.23;8.25;;;;;;;;;;5027182;28;20061;-60
2023/09/02 11:44:30;;;;;;;14.52;8.30;;;;;;;;;;5029897;28;20183;-58
2023/09/02 11:46:56;;;;;;;11.75;8.07;;;;;;;;;;5031042;28;20045;-59
2023/09/02 11:49:23;;;;;;;12.85;8.27;;;;;;;;;;5031393;28;20046;-58
2023/09/02 11:51:49;;;;;;;11.38;8.18;;;;;;;;;;5030261;28;20108;-58
2023/09/02 11:54:16;;;;;;;10.95;8.18;;;;;;;;;;5030453;28;20129;-58
2023/09/02 11:56:54;;;;;;;9.25;6.70;;;;;;;;;;5030648;28;20522;-58
2023/09/02 11:59:20;;;;;;;11.88;6.60;;;;;;;;;;5031125;28;20048;-58
2023/09/02 12:01:46;;;;;;;10.30;6.53;;;;;;;;;;5029657;28;20041;-58
2023/09/02 12:04:12;;;;;;;11.82;6.07;;;;;;;;;;5029872;28;20056;-58
2023/09/02 12:06:38;;;;;;;10.52;6.15;;;;;;;;;;5030607;28;20045;-58
2023/09/02 12:09:06;;;;;;;10.77;5.95;;;;;;;;;;5030404;28;20052;-59
2023/09/02 12:11:32;;;;;;;9.65;5.97;;;;;;;;;;5032059;28;20049;-58
2023/09/02 12:13:59;;;;;;;11.75;8.32;;;;;;;;;;5036254;28;20037;-59
2023/09/02 12:16:26;;;;;;;8.75;5.53;;;;;;;;;;5031104;28;20045;-58
2023/09/02 12:18:52;;;;;;;10.07;6.50;;;;;;;;;;5030910;28;20037;-58
2023/09/02 12:21:18;;;;;;;13.43;6.65;;;;;;;;;;5030344;28;20378;-58
2023/09/02 12:23:44;;;;;;;8.57;5.72;;;;;;;;;;5033140;28;20041;-58
2023/09/02 12:26:10;;;;;;;12.52;6.80;;;;;;;;;;5029770;28;20046;-58
2023/09/02 12:28:36;;;;;;;8.98;6.45;;;;;;;;;;5030124;28;20614;-58
2023/09/02 12:31:04;;;;;;;14.70;7.40;;;;;;;;;;5030389;28;20530;-59
2023/09/02 12:33:30;;;;;;;11.52;8.10;;;;;;;;;;5029364;28;20037;-59
2023/09/02 12:35:56;;;;;;;10.10;7.78;;;;;;;;;;5029901;28;20624;-59
2023/09/02 12:38:23;;;;;;;12.05;8.50;;;;;;;;;;5029121;28;20069;-58
2023/09/02 12:40:56;;;;;;;12.05;8.05;;;;;;;;;;5030201;28;20057;-59
2023/09/02 12:43:24;;;;;;;11.52;7.50;;;;;;;;;;5028977;28;20050;-60
2023/09/02 12:45:52;;;;;;;10.43;7.40;;;;;;;;;;5030120;28;20088;-59
2023/09/02 12:48:18;;;;;;;10.65;7.07;;;;;;;;;;5030491;28;20467;-59
2023/09/02 12:50:45;;;;;;;12.77;7.30;;;;;;;;;;5030215;28;20136;-59
2023/09/02 12:53:12;;;;;;;13.80;8.07;;;;;;;;;;5030398;28;20100;-59
2023/09/02 12:55:42;;;;;;;12.75;7.45;;;;;;;;;;5029666;28;20165;-59
2023/09/02 12:58:08;;;;;;;12.23;7.63;;;;;;;;;;5030114;28;20049;-59
2023/09/02 13:00:34;;;;;;;12.25;7.07;;;;;;;;;;5027109;28;20478;-59
2023/09/02 13:03:00;;;;;;;10.52;6.55;;;;;;;;;;5030152;28;20407;-59
2023/09/02 13:05:26;;;;;;;7.03;4.78;;;;;;;;;;5030267;28;20126;-60
2023/09/02 13:07:55;;;;;;;11.95;6.03;;;;;;;;;;5029666;28;20052;-60
2023/09/02 13:10:21;;;;;;;9.15;5.32;;;;;;;;;;5030132;28;20045;-60
2023/09/02 13:12:47;;;;;;;9.88;6.05;;;;;;;;;;5030364;28;20053;-60
2023/09/02 13:15:14;;;;;;;8.13;5.05;;;;;;;;;;5030515;28;20056;-59
2023/09/02 13:17:40;;;;;;;10.10;6.03;;;;;;;;;;5029471;28;20077;-60
2023/09/02 13:20:06;;;;;;;10.07;6.15;;;;;;;;;;5030450;28;20081;-60
2023/09/02 13:22:37;;;;;;;10.38;5.93;;;;;;;;;;5029785;28;20590;-59
2023/09/02 13:25:04;;;;;;;9.07;6.13;;;;;;;;;;5029036;28;20623;-59
2023/09/02 13:27:30;;;;;;;7.93;5.78;;;;;;;;;;5029721;28;20072;-59
2023/09/02 13:29:56;;;;;;;10.23;6.38;;;;;;;;;;5030248;28;20049;-59
2023/09/02 13:32:23;;;;;;;7.00;4.97;;;;;;;;;;5029873;28;20121;-59
2023/09/02 13:34:49;;;;;;;8.23;4.85;;;;;;;;;;5029254;28;20060;-59
2023/09/02 13:37:22;;;;;;;9.35;4.93;;;;;;;;;;5029764;28;20060;-59
2023/09/02 13:40:14;;;;;;;8.95;4.82;;;;;;;;;;5029449;28;20060;-60
2023/09/02 13:42:41;;;;;;;10.95;5.15;;;;;;;;;;5006502;28;20045;-59
2023/09/02 13:45:27;;;;;;;8.23;5.07;;;;;;;;;;5028655;28;20570;-60
2023/09/02 13:47:53;;;;;;;6.20;4.78;;;;;;;;;;5029339;28;20045;-59
2023/09/02 13:50:19;;;;;;;8.20;4.50;;;;;;;;;;5029523;28;20041;-59
2023/09/02 13:52:50;;;;;;;7.57;5.30;;;;;;;;;;5029182;28;20133;-59
2023/09/02 13:55:17;;;;;;;9.52;4.78;;;;;;;;;;5029146;28;20412;-59
2023/09/02 13:57:46;;;;;;;8.68;4.88;;;;;;;;;;5028818;28;20099;-60
2023/09/02 14:00:25;;;;;;;8.23;5.30;;;;;;;;;;5028850;28;20388;-60
2023/09/02 14:02:51;;;;;;;10.15;6.13;;;;;;;;;;5029175;28;20045;-60
2023/09/02 14:05:20;;;;;;;7.18;4.05;;;;;;;;;;5028702;28;20538;-60
2023/09/02 14:07:47;;;;;;;10.13;4.50;;;;;;;;;;5027982;28;20475;-60
2023/09/02 14:10:13;;;;;;;9.05;5.57;;;;;;;;;;5008929;28;20050;-60
2023/09/02 14:12:39;;;;;;;6.75;4.63;;;;;;;;;;5008904;28;20041;-60
2023/09/02 14:15:06;;;;;;;7.47;4.47;;;;;;;;;;5009220;28;20045;-60
2023/09/02 14:17:32;;;;;;;10.07;4.82;;;;;;;;;;5009307;28;20069;-60